sensor_id;sensor_type;location;lat;lon;timestamp;temperature;humidity
68109;SHT30;54893;49.864;19.084;2023-02-01T00:02:45;2.52;90.63
68109;SHT30;54893;49.864;19.084;2023-02-01T00:07:47;2.47;90.92
68109;SHT30;54893;49.864;19.084;2023-02-01T00:12:48;2.37;91.49
68109;SHT30;54893;49.864;19.084;2023-02-01T00:17:53;2.41;91.20
68109;SHT30;54893;49.864;19.084;2023-02-01T00:22:54;2.31;91.58
68109;SHT30;54893;49.864;19.084;2023-02-01T00:27:54;2.34;91.68
68109;SHT30;54893;49.864;19.084;2023-02-01T00:32:56;2.36;91.66
68109;SHT30;54893;49.864;19.084;2023-02-01T00:37:57;2.48;90.86
68109;SHT30;54893;49.864;19.084;2023-02-01T00:42:59;2.41;91.08
68109;SHT30;54893;49.864;19.084;2023-02-01T00:47:59;2.57;90.78
68109;SHT30;54893;49.864;19.084;2023-02-01T00:52:59;2.50;90.71
68109;SHT30;54893;49.864;19.084;2023-02-01T00:58:00;2.44;90.96
68109;SHT30;54893;49.864;19.084;2023-02-01T01:03:00;2.60;90.26
68109;SHT30;54893;49.864;19.084;2023-02-01T01:08:00;2.74;89.75
68109;SHT30;54893;49.864;19.084;2023-02-01T01:13:01;2.55;90.22
68109;SHT30;54893;49.864;19.084;2023-02-01T01:18:01;2.68;89.63
68109;SHT30;54893;49.864;19.084;2023-02-01T01:23:02;2.80;89.42
68109;SHT30;54893;49.864;19.084;2023-02-01T01:28:03;2.74;89.31
68109;SHT30;54893;49.864;19.084;2023-02-01T01:33:03;2.85;89.20
68109;SHT30;54893;49.864;19.084;2023-02-01T01:38:03;2.89;89.34
68109;SHT30;54893;49.864;19.084;2023-02-01T01:43:14;2.78;89.50
68109;SHT30;54893;49.864;19.084;2023-02-01T01:48:28;2.62;90.38
68109;SHT30;54893;49.864;19.084;2023-02-01T01:53:34;2.57;90.74
68109;SHT30;54893;49.864;19.084;2023-02-01T01:58:37;2.58;90.86
68109;SHT30;54893;49.864;19.084;2023-02-01T02:03:42;2.72;90.72
68109;SHT30;54893;49.864;19.084;2023-02-01T02:08:43;2.21;92.08
68109;SHT30;54893;49.864;19.084;2023-02-01T02:13:47;1.31;96.31
68109;SHT30;54893;49.864;19.084;2023-02-01T02:19:32;1.02;96.12
68109;SHT30;54893;49.864;19.084;2023-02-01T02:24:49;0.71;96.66
68109;SHT30;54893;49.864;19.084;2023-02-01T02:35:39;0.54;97.41
68109;SHT30;54893;49.864;19.084;2023-02-01T02:46:03;0.80;97.28
68109;SHT30;54893;49.864;19.084;2023-02-01T02:51:53;0.75;98.40
68109;SHT30;54893;49.864;19.084;2023-02-01T02:57:18;0.62;98.35
68109;SHT30;54893;49.864;19.084;2023-02-01T03:02:38;0.65;98.73
68109;SHT30;54893;49.864;19.084;2023-02-01T03:08:14;0.58;98.32
68109;SHT30;54893;49.864;19.084;2023-02-01T03:13:40;0.65;98.35
68109;SHT30;54893;49.864;19.084;2023-02-01T03:23:42;0.39;99.13
68109;SHT30;54893;49.864;19.084;2023-02-01T03:28:50;0.36;99.61
68109;SHT30;54893;49.864;19.084;2023-02-01T03:33:52;0.30;99.71
68109;SHT30;54893;49.864;19.084;2023-02-01T03:39:13;0.33;99.89
68109;SHT30;54893;49.864;19.084;2023-02-01T03:44:27;0.41;99.76
68109;SHT30;54893;49.864;19.084;2023-02-01T03:49:35;0.37;99.68
68109;SHT30;54893;49.864;19.084;2023-02-01T03:54:36;0.41;99.72
68109;SHT30;54893;49.864;19.084;2023-02-01T03:59:42;0.43;99.70
68109;SHT30;54893;49.864;19.084;2023-02-01T04:04:42;0.56;99.46
68109;SHT30;54893;49.864;19.084;2023-02-01T04:09:43;0.67;98.95
68109;SHT30;54893;49.864;19.084;2023-02-01T04:14:43;0.82;98.41
68109;SHT30;54893;49.864;19.084;2023-02-01T04:19:43;1.05;97.28
68109;SHT30;54893;49.864;19.084;2023-02-01T04:24:44;1.24;96.43
68109;SHT30;54893;49.864;19.084;2023-02-01T04:29:45;1.31;95.64
68109;SHT30;54893;49.864;19.084;2023-02-01T04:34:45;1.40;94.69
68109;SHT30;54893;49.864;19.084;2023-02-01T04:39:46;1.52;93.73
68109;SHT30;54893;49.864;19.084;2023-02-01T04:44:46;1.52;93.51
68109;SHT30;54893;49.864;19.084;2023-02-01T04:49:46;1.43;93.45
68109;SHT30;54893;49.864;19.084;2023-02-01T04:54:47;1.63;92.24
68109;SHT30;54893;49.864;19.084;2023-02-01T04:59:47;1.55;92.03
68109;SHT30;54893;49.864;19.084;2023-02-01T05:04:47;1.67;91.56
68109;SHT30;54893;49.864;19.084;2023-02-01T05:09:48;1.53;92.08
68109;SHT30;54893;49.864;19.084;2023-02-01T05:14:48;1.72;90.85
68109;SHT30;54893;49.864;19.084;2023-02-01T05:19:49;1.83;89.08
68109;SHT30;54893;49.864;19.084;2023-02-01T05:24:49;1.79;89.25
68109;SHT30;54893;49.864;19.084;2023-02-01T05:29:49;1.69;90.11
68109;SHT30;54893;49.864;19.084;2023-02-01T05:34:50;1.64;90.32
68109;SHT30;54893;49.864;19.084;2023-02-01T05:39:50;1.62;90.46
68109;SHT30;54893;49.864;19.084;2023-02-01T05:44:51;1.53;91.34
68109;SHT30;54893;49.864;19.084;2023-02-01T05:49:51;1.64;91.34
68109;SHT30;54893;49.864;19.084;2023-02-01T05:54:51;1.59;91.71
68109;SHT30;54893;49.864;19.084;2023-02-01T05:59:52;1.63;91.72
68109;SHT30;54893;49.864;19.084;2023-02-01T06:04:53;1.73;91.54
68109;SHT30;54893;49.864;19.084;2023-02-01T06:09:53;1.73;90.97
68109;SHT30;54893;49.864;19.084;2023-02-01T06:14:53;1.82;90.79
68109;SHT30;54893;49.864;19.084;2023-02-01T06:19:54;1.77;90.80
68109;SHT30;54893;49.864;19.084;2023-02-01T06:24:54;2.03;89.67
68109;SHT30;54893;49.864;19.084;2023-02-01T06:29:54;2.07;89.53
68109;SHT30;54893;49.864;19.084;2023-02-01T06:34:55;2.07;89.81
68109;SHT30;54893;49.864;19.084;2023-02-01T06:39:56;2.24;89.06
68109;SHT30;54893;49.864;19.084;2023-02-01T06:44:56;2.26;88.98
68109;SHT30;54893;49.864;19.084;2023-02-01T06:49:56;2.34;88.64
68109;SHT30;54893;49.864;19.084;2023-02-01T06:54:57;2.48;88.03
68109;SHT30;54893;49.864;19.084;2023-02-01T06:59:57;2.47;87.97
68109;SHT30;54893;49.864;19.084;2023-02-01T07:04:58;2.54;87.75
68109;SHT30;54893;49.864;19.084;2023-02-01T07:09:58;2.57;87.36
68109;SHT30;54893;49.864;19.084;2023-02-01T07:14:59;2.70;86.63
68109;SHT30;54893;49.864;19.084;2023-02-01T07:19:59;2.72;86.45
68109;SHT30;54893;49.864;19.084;2023-02-01T07:25:02;2.65;86.63
68109;SHT30;54893;49.864;19.084;2023-02-01T07:30:04;2.72;86.69
68109;SHT30;54893;49.864;19.084;2023-02-01T07:35:05;2.65;86.64
68109;SHT30;54893;49.864;19.084;2023-02-01T07:40:06;2.72;86.37
68109;SHT30;54893;49.864;19.084;2023-02-01T07:45:07;2.72;86.16
68109;SHT30;54893;49.864;19.084;2023-02-01T07:50:08;2.77;86.25
68109;SHT30;54893;49.864;19.084;2023-02-01T07:55:09;2.87;85.38
68109;SHT30;54893;49.864;19.084;2023-02-01T08:00:10;2.84;85.82
68109;SHT30;54893;49.864;19.084;2023-02-01T08:05:29;2.84;85.73
68109;SHT30;54893;49.864;19.084;2023-02-01T08:10:29;2.88;85.35
68109;SHT30;54893;49.864;19.084;2023-02-01T08:15:30;2.95;85.21
68109;SHT30;54893;49.864;19.084;2023-02-01T08:20:31;3.01;84.68
68109;SHT30;54893;49.864;19.084;2023-02-01T08:25:31;3.02;84.94
68109;SHT30;54893;49.864;19.084;2023-02-01T08:30:32;3.11;84.57
68109;SHT30;54893;49.864;19.084;2023-02-01T08:35:34;3.16;84.56
68109;SHT30;54893;49.864;19.084;2023-02-01T08:40:35;3.43;82.95
68109;SHT30;54893;49.864;19.084;2023-02-01T08:45:35;3.43;83.29
68109;SHT30;54893;49.864;19.084;2023-02-01T08:50:36;3.53;82.96
68109;SHT30;54893;49.864;19.084;2023-02-01T08:55:36;3.72;82.14
68109;SHT30;54893;49.864;19.084;2023-02-01T09:00:36;3.73;82.15
68109;SHT30;54893;49.864;19.084;2023-02-01T09:05:37;3.86;81.02
68109;SHT30;54893;49.864;19.084;2023-02-01T09:10:37;3.93;80.94
68109;SHT30;54893;49.864;19.084;2023-02-01T09:15:38;3.95;80.46
68109;SHT30;54893;49.864;19.084;2023-02-01T09:20:38;3.80;81.27
68109;SHT30;54893;49.864;19.084;2023-02-01T09:25:38;3.93;81.40
68109;SHT30;54893;49.864;19.084;2023-02-01T09:30:39;4.03;80.69
68109;SHT30;54893;49.864;19.084;2023-02-01T09:35:39;3.87;81.42
68109;SHT30;54893;49.864;19.084;2023-02-01T09:40:42;3.76;81.45
68109;SHT30;54893;49.864;19.084;2023-02-01T09:46:08;3.76;81.67
68109;SHT30;54893;49.864;19.084;2023-02-01T09:51:19;3.82;82.06
68109;SHT30;54893;49.864;19.084;2023-02-01T09:56:24;3.63;83.55
68109;SHT30;54893;49.864;19.084;2023-02-01T10:01:27;3.33;84.76
68109;SHT30;54893;49.864;19.084;2023-02-01T10:06:54;3.25;85.31
68109;SHT30;54893;49.864;19.084;2023-02-01T10:17:50;3.36;84.84
68109;SHT30;54893;49.864;19.084;2023-02-01T10:28:33;3.74;83.60
68109;SHT30;54893;49.864;19.084;2023-02-01T10:33:41;3.76;83.05
68109;SHT30;54893;49.864;19.084;2023-02-01T10:38:41;3.77;82.18
68109;SHT30;54893;49.864;19.084;2023-02-01T10:43:44;3.79;81.99
68109;SHT30;54893;49.864;19.084;2023-02-01T10:48:47;4.04;80.82
68109;SHT30;54893;49.864;19.084;2023-02-01T10:53:56;4.37;79.52
68109;SHT30;54893;49.864;19.084;2023-02-01T10:59:05;4.64;78.71
68109;SHT30;54893;49.864;19.084;2023-02-01T11:04:13;4.81;78.07
68109;SHT30;54893;49.864;19.084;2023-02-01T11:09:19;4.89;77.68
68109;SHT30;54893;49.864;19.084;2023-02-01T11:19:28;4.52;78.40
68109;SHT30;54893;49.864;19.084;2023-02-01T11:24:32;4.41;78.86
68109;SHT30;54893;49.864;19.084;2023-02-01T11:29:39;4.31;79.04
68109;SHT30;54893;49.864;19.084;2023-02-01T11:34:45;4.27;79.49
68109;SHT30;54893;49.864;19.084;2023-02-01T11:39:54;4.31;79.70
68109;SHT30;54893;49.864;19.084;2023-02-01T11:50:28;4.25;80.69
68109;SHT30;54893;49.864;19.084;2023-02-01T11:55:45;4.13;80.90
68109;SHT30;54893;49.864;19.084;2023-02-01T12:01:07;4.30;80.22
68109;SHT30;54893;49.864;19.084;2023-02-01T12:37:51;4.21;82.62
68109;SHT30;54893;49.864;19.084;2023-02-01T12:43:01;4.18;82.36
68109;SHT30;54893;49.864;19.084;2023-02-01T12:53:34;4.13;82.56
68109;SHT30;54893;49.864;19.084;2023-02-01T12:58:59;3.93;83.54
68109;SHT30;54893;49.864;19.084;2023-02-01T13:04:03;3.93;83.65
68109;SHT30;54893;49.864;19.084;2023-02-01T13:14:14;3.80;84.81
68109;SHT30;54893;49.864;19.084;2023-02-01T13:24:33;3.52;86.26
68109;SHT30;54893;49.864;19.084;2023-02-01T13:29:36;3.38;87.16
68109;SHT30;54893;49.864;19.084;2023-02-01T13:34:53;3.43;87.23
68109;SHT30;54893;49.864;19.084;2023-02-01T13:45:30;3.53;86.60
68109;SHT30;54893;49.864;19.084;2023-02-01T13:50:37;3.60;86.44
68109;SHT30;54893;49.864;19.084;2023-02-01T13:55:41;3.38;86.99
68109;SHT30;54893;49.864;19.084;2023-02-01T14:00:42;3.13;87.73
68109;SHT30;54893;49.864;19.084;2023-02-01T14:10:56;2.77;89.81
68109;SHT30;54893;49.864;19.084;2023-02-01T14:21:29;2.62;91.32
68109;SHT30;54893;49.864;19.084;2023-02-01T14:36:59;2.44;92.42
68109;SHT30;54893;49.864;19.084;2023-02-01T14:42:05;2.36;93.10
68109;SHT30;54893;49.864;19.084;2023-02-01T14:52:22;2.21;93.88
68109;SHT30;54893;49.864;19.084;2023-02-01T14:57:25;2.16;94.24
68109;SHT30;54893;49.864;19.084;2023-02-01T15:02:26;2.14;94.37
68109;SHT30;54893;49.864;19.084;2023-02-01T15:07:28;2.28;94.23
68109;SHT30;54893;49.864;19.084;2023-02-01T15:12:29;2.14;94.57
68109;SHT30;54893;49.864;19.084;2023-02-01T15:17:32;2.06;95.03
68109;SHT30;54893;49.864;19.084;2023-02-01T15:22:34;1.99;95.17
68109;SHT30;54893;49.864;19.084;2023-02-01T15:27:34;1.92;95.43
68109;SHT30;54893;49.864;19.084;2023-02-01T15:32:38;1.93;95.28
68109;SHT30;54893;49.864;19.084;2023-02-01T15:37:38;1.90;95.54
68109;SHT30;54893;49.864;19.084;2023-02-01T15:42:54;1.92;95.58
68109;SHT30;54893;49.864;19.084;2023-02-01T15:47:57;1.96;95.43
68109;SHT30;54893;49.864;19.084;2023-02-01T15:52:58;2.09;94.92
68109;SHT30;54893;49.864;19.084;2023-02-01T15:57:58;2.24;94.35
68109;SHT30;54893;49.864;19.084;2023-02-01T16:03:01;2.33;93.79
68109;SHT30;54893;49.864;19.084;2023-02-01T16:08:09;2.33;93.68
68109;SHT30;54893;49.864;19.084;2023-02-01T16:13:11;2.44;93.07
68109;SHT30;54893;49.864;19.084;2023-02-01T16:18:12;2.54;92.51
68109;SHT30;54893;49.864;19.084;2023-02-01T16:23:13;2.60;91.63
68109;SHT30;54893;49.864;19.084;2023-02-01T16:28:14;2.64;91.14
68109;SHT30;54893;49.864;19.084;2023-02-01T16:33:18;2.68;90.34
68109;SHT30;54893;49.864;19.084;2023-02-01T16:38:20;2.78;89.81
68109;SHT30;54893;49.864;19.084;2023-02-01T16:43:23;2.70;89.58
68109;SHT30;54893;49.864;19.084;2023-02-01T16:48:29;2.72;89.63
68109;SHT30;54893;49.864;19.084;2023-02-01T16:53:31;3.01;88.23
68109;SHT30;54893;49.864;19.084;2023-02-01T16:58:31;2.85;88.53
68109;SHT30;54893;49.864;19.084;2023-02-01T17:03:31;2.82;88.92
68109;SHT30;54893;49.864;19.084;2023-02-01T17:08:37;2.75;89.28
68109;SHT30;54893;49.864;19.084;2023-02-01T17:13:39;2.64;89.51
68109;SHT30;54893;49.864;19.084;2023-02-01T17:19:05;2.58;89.75
68109;SHT30;54893;49.864;19.084;2023-02-01T17:24:08;2.62;89.47
68109;SHT30;54893;49.864;19.084;2023-02-01T17:29:10;2.68;89.31
68109;SHT30;54893;49.864;19.084;2023-02-01T17:34:11;2.57;89.55
68109;SHT30;54893;49.864;19.084;2023-02-01T17:39:15;2.68;88.77
68109;SHT30;54893;49.864;19.084;2023-02-01T17:44:35;2.61;88.84
68109;SHT30;54893;49.864;19.084;2023-02-01T17:49:35;2.70;88.32
68109;SHT30;54893;49.864;19.084;2023-02-01T17:54:37;2.74;87.82
68109;SHT30;54893;49.864;19.084;2023-02-01T17:59:38;2.84;87.33
68109;SHT30;54893;49.864;19.084;2023-02-01T18:04:39;2.82;87.10
68109;SHT30;54893;49.864;19.084;2023-02-01T18:09:39;2.84;86.98
68109;SHT30;54893;49.864;19.084;2023-02-01T18:14:40;2.87;86.59
68109;SHT30;54893;49.864;19.084;2023-02-01T18:19:40;2.80;86.89
68109;SHT30;54893;49.864;19.084;2023-02-01T18:24:41;2.89;86.40
68109;SHT30;54893;49.864;19.084;2023-02-01T18:29:41;2.77;87.08
68109;SHT30;54893;49.864;19.084;2023-02-01T18:34:41;2.80;87.01
68109;SHT30;54893;49.864;19.084;2023-02-01T18:39:42;2.77;87.41
68109;SHT30;54893;49.864;19.084;2023-02-01T18:44:42;2.88;87.44
68109;SHT30;54893;49.864;19.084;2023-02-01T18:49:43;2.87;88.13
68109;SHT30;54893;49.864;19.084;2023-02-01T18:54:43;2.82;88.33
68109;SHT30;54893;49.864;19.084;2023-02-01T18:59:43;2.77;88.58
68109;SHT30;54893;49.864;19.084;2023-02-01T19:04:44;2.72;88.90
68109;SHT30;54893;49.864;19.084;2023-02-01T19:09:44;2.62;89.28
68109;SHT30;54893;49.864;19.084;2023-02-01T19:14:44;2.71;89.17
68109;SHT30;54893;49.864;19.084;2023-02-01T19:19:45;2.77;88.52
68109;SHT30;54893;49.864;19.084;2023-02-01T19:24:45;2.85;88.17
68109;SHT30;54893;49.864;19.084;2023-02-01T19:29:45;2.99;87.25
68109;SHT30;54893;49.864;19.084;2023-02-01T19:34:46;3.02;86.89
68109;SHT30;54893;49.864;19.084;2023-02-01T19:39:48;2.87;87.35
68109;SHT30;54893;49.864;19.084;2023-02-01T19:44:48;3.19;85.81
68109;SHT30;54893;49.864;19.084;2023-02-01T19:49:49;3.22;85.26
68109;SHT30;54893;49.864;19.084;2023-02-01T19:54:49;3.01;86.11
68109;SHT30;54893;49.864;19.084;2023-02-01T19:59:49;3.18;85.57
68109;SHT30;54893;49.864;19.084;2023-02-01T20:04:50;3.11;85.69
68109;SHT30;54893;49.864;19.084;2023-02-01T20:09:50;3.19;85.49
68109;SHT30;54893;49.864;19.084;2023-02-01T20:14:50;3.18;85.83
68109;SHT30;54893;49.864;19.084;2023-02-01T20:19:51;3.19;86.13
68109;SHT30;54893;49.864;19.084;2023-02-01T20:24:51;2.99;87.08
68109;SHT30;54893;49.864;19.084;2023-02-01T20:29:51;2.89;87.50
68109;SHT30;54893;49.864;19.084;2023-02-01T20:34:51;2.96;86.78
68109;SHT30;54893;49.864;19.084;2023-02-01T20:39:53;2.96;86.53
68109;SHT30;54893;49.864;19.084;2023-02-01T20:44:53;3.13;85.38
68109;SHT30;54893;49.864;19.084;2023-02-01T20:49:54;3.11;85.11
68109;SHT30;54893;49.864;19.084;2023-02-01T20:54:54;3.28;83.92
68109;SHT30;54893;49.864;19.084;2023-02-01T20:59:54;3.30;84.71
68109;SHT30;54893;49.864;19.084;2023-02-01T21:04:54;2.78;88.79
68109;SHT30;54893;49.864;19.084;2023-02-01T21:09:55;2.20;91.54
68109;SHT30;54893;49.864;19.084;2023-02-01T21:14:55;2.03;92.67
68109;SHT30;54893;49.864;19.084;2023-02-01T21:19:56;1.99;93.39
68109;SHT30;54893;49.864;19.084;2023-02-01T21:24:56;1.97;93.93
68109;SHT30;54893;49.864;19.084;2023-02-01T21:29:57;2.00;93.82
68109;SHT30;54893;49.864;19.084;2023-02-01T21:34:57;2.09;93.54
68109;SHT30;54893;49.864;19.084;2023-02-01T21:39:57;2.23;92.91
68109;SHT30;54893;49.864;19.084;2023-02-01T21:44:57;2.58;91.56
68109;SHT30;54893;49.864;19.084;2023-02-01T21:50:00;2.40;91.87
68109;SHT30;54893;49.864;19.084;2023-02-01T21:55:00;2.42;91.83
68109;SHT30;54893;49.864;19.084;2023-02-01T22:00:01;2.51;91.88
68109;SHT30;54893;49.864;19.084;2023-02-01T22:05:03;2.36;92.19
68109;SHT30;54893;49.864;19.084;2023-02-01T22:10:05;2.48;92.16
68109;SHT30;54893;49.864;19.084;2023-02-01T22:15:06;2.33;92.90
68109;SHT30;54893;49.864;19.084;2023-02-01T22:20:07;2.34;93.32
68109;SHT30;54893;49.864;19.084;2023-02-01T22:25:08;2.17;93.56
68109;SHT30;54893;49.864;19.084;2023-02-01T22:30:11;2.24;93.53
68109;SHT30;54893;49.864;19.084;2023-02-01T22:35:12;2.34;92.78
68109;SHT30;54893;49.864;19.084;2023-02-01T22:40:13;2.33;92.91
68109;SHT30;54893;49.864;19.084;2023-02-01T22:45:13;2.41;92.65
68109;SHT30;54893;49.864;19.084;2023-02-01T22:50:13;2.44;92.00
68109;SHT30;54893;49.864;19.084;2023-02-01T22:55:14;2.48;91.26
68109;SHT30;54893;49.864;19.084;2023-02-01T23:00:14;2.57;90.65
68109;SHT30;54893;49.864;19.084;2023-02-01T23:05:15;2.55;90.06
68109;SHT30;54893;49.864;19.084;2023-02-01T23:10:16;2.64;89.60
68109;SHT30;54893;49.864;19.084;2023-02-01T23:15:17;2.77;88.60
68109;SHT30;54893;49.864;19.084;2023-02-01T23:20:19;2.89;87.41
68109;SHT30;54893;49.864;19.084;2023-02-01T23:25:19;2.68;88.86
68109;SHT30;54893;49.864;19.084;2023-02-01T23:30:20;2.07;91.72
68109;SHT30;54893;49.864;19.084;2023-02-01T23:35:20;1.80;93.29
68109;SHT30;54893;49.864;19.084;2023-02-01T23:40:20;1.35;94.87
68109;SHT30;54893;49.864;19.084;2023-02-01T23:45:20;1.19;95.65
68109;SHT30;54893;49.864;19.084;2023-02-01T23:50:21;1.18;95.82
68109;SHT30;54893;49.864;19.084;2023-02-01T23:55:21;1.01;96.52
